Time;durP1;ratioP1;P1;durP2;ratioP2;P2;SDS_P1;SDS_P2;PMS_P1;PMS_P2;Temp;Humidity;BMP_temperature;BMP_pressure;BME280_temperature;BME280_humidity;BME280_pressure;Samples;Min_cycle;Max_cycle;Signal;HPM_P1;HPM_P2
2021/03/17 00:02:28;;;;;;;7.70;1.73;;;4.80;99.90;;;;;;4991228;28;20495;-80
2021/03/17 00:05:21;;;;;;;5.27;1.83;;;4.80;99.90;;;;;;4994440;28;20472;-80
2021/03/17 00:08:07;;;;;;;5.60;1.73;;;4.80;99.90;;;;;;4991397;28;20998;-80
2021/03/17 00:10:55;;;;;;;7.03;1.67;;;4.80;99.90;;;;;;4990834;28;21007;-80
2021/03/17 00:13:42;;;;;;;5.73;1.90;;;4.80;99.90;;;;;;4991505;28;20614;-80
2021/03/17 00:16:29;;;;;;;3.30;1.40;;;4.80;99.90;;;;;;4991016;28;20495;-80
2021/03/17 00:19:16;;;;;;;2.93;1.43;;;4.50;99.90;;;;;;5001105;28;20477;-80
2021/03/17 00:22:02;;;;;;;6.80;1.57;;;4.50;99.90;;;;;;5009957;28;20513;-80
2021/03/17 00:24:48;;;;;;;3.40;1.53;;;4.40;99.90;;;;;;4999107;28;20534;-80
2021/03/17 00:27:34;;;;;;;4.23;1.67;;;4.50;99.90;;;;;;4990798;28;20827;-80
2021/03/17 00:30:21;;;;;;;5.73;2.00;;;4.60;99.90;;;;;;4990908;28;20575;-79
2021/03/17 00:33:10;;;;;;;4.83;1.63;;;4.80;99.90;;;;;;4990662;28;21145;-79
2021/03/17 00:35:56;;;;;;;5.73;1.70;;;4.80;99.90;;;;;;4990786;28;20537;-80
2021/03/17 00:38:43;;;;;;;5.40;1.63;;;4.80;99.90;;;;;;4990433;28;20545;-79
2021/03/17 00:41:29;;;;;;;3.97;1.63;;;4.90;99.90;;;;;;4990310;28;21229;-79
2021/03/17 00:44:15;;;;;;;5.40;1.60;;;4.70;99.90;;;;;;4997568;28;20598;-79
2021/03/17 00:47:02;;;;;;;4.13;1.50;;;4.70;99.90;;;;;;5007407;28;20614;-80
2021/03/17 00:49:33;;;;;;;5.63;1.77;;;4.80;99.90;;;;;;5016308;28;20517;-80
2021/03/17 00:52:00;;;;;;;6.50;1.83;;;4.80;99.90;;;;;;5002124;28;20476;-80
2021/03/17 00:54:46;;;;;;;4.83;1.70;;;4.80;99.90;;;;;;5009766;28;20481;-80
2021/03/17 00:57:41;;;;;;;5.50;1.50;;;4.70;99.90;;;;;;4993554;28;20476;-80
2021/03/17 01:00:13;;;;;;;4.87;1.50;;;4.80;99.90;;;;;;5009763;28;20566;-80
2021/03/17 01:02:41;;;;;;;3.23;1.40;;;4.90;99.90;;;;;;5010193;28;20487;-80
2021/03/17 01:05:37;;;;;;;5.93;1.60;;;4.90;99.90;;;;;;5010356;28;20545;-80
2021/03/17 01:08:12;;;;;;;5.60;1.50;;;5.00;99.90;;;;;;5009958;28;20549;-79
2021/03/17 01:10:45;;;;;;;4.27;1.70;;;4.90;99.90;;;;;;5024783;28;20471;-79
2021/03/17 01:13:14;;;;;;;4.50;1.67;;;5.00;99.90;;;;;;5001341;28;20569;-80
2021/03/17 01:15:44;;;;;;;4.10;1.60;;;4.90;99.90;;;;;;4995672;28;20574;-80
2021/03/17 01:18:12;;;;;;;5.90;1.57;;;4.90;99.90;;;;;;4999838;28;20563;-79
2021/03/17 01:20:41;;;;;;;2.87;1.37;;;4.90;99.90;;;;;;5007621;28;20538;-80
2021/03/17 01:23:10;;;;;;;7.43;1.63;;;4.90;99.90;;;;;;4994408;28;20494;-79
2021/03/17 01:25:45;;;;;;;3.77;1.40;;;4.90;99.90;;;;;;5007204;28;20480;-80
2021/03/17 01:28:14;;;;;;;4.00;1.53;;;4.80;99.90;;;;;;5006266;28;20957;-80
2021/03/17 01:30:45;;;;;;;2.80;1.40;;;4.90;99.90;;;;;;5009182;28;20500;-80
2021/03/17 01:33:14;;;;;;;3.97;1.43;;;5.00;99.90;;;;;;5009511;28;20514;-81
2021/03/17 01:35:45;;;;;;;4.07;1.60;;;5.00;99.90;;;;;;5009533;28;20486;-80
2021/03/17 01:38:17;;;;;;;3.77;2.07;;;4.90;99.90;;;;;;5009161;28;20478;-79
2021/03/17 01:40:45;;;;;;;4.13;1.43;;;4.80;99.90;;;;;;5024230;28;20474;-80
2021/03/17 01:43:13;;;;;;;4.30;1.50;;;5.00;99.90;;;;;;4996513;28;20487;-80
2021/03/17 01:45:43;;;;;;;6.43;1.73;;;4.90;99.90;;;;;;5007780;28;20506;-80
2021/03/17 01:48:12;;;;;;;4.53;1.97;;;4.90;99.90;;;;;;4999889;28;20483;-80
2021/03/17 01:50:44;;;;;;;5.20;1.53;;;4.90;99.90;;;;;;4988809;28;20605;-80
2021/03/17 01:53:15;;;;;;;3.33;1.70;;;4.80;99.90;;;;;;4989580;28;20476;-80
2021/03/17 01:55:43;;;;;;;5.10;1.70;;;4.60;99.90;;;;;;4989381;28;20472;-80
2021/03/17 01:58:12;;;;;;;4.13;2.10;;;4.60;99.90;;;;;;4989231;28;21111;-80
2021/03/17 02:00:41;;;;;;;7.17;1.60;;;4.60;99.90;;;;;;5004213;28;21023;-80
2021/03/17 02:03:09;;;;;;;5.13;1.67;;;4.70;99.90;;;;;;4989541;28;20535;-80
2021/03/17 02:05:41;;;;;;;3.70;1.60;;;4.60;99.90;;;;;;4991562;28;20559;-79
2021/03/17 02:08:13;;;;;;;2.43;1.47;;;4.70;99.90;;;;;;4989154;28;20484;-80
2021/03/17 02:10:41;;;;;;;3.90;1.60;;;4.70;99.90;;;;;;4990717;28;20547;-80
2021/03/17 02:13:34;;;;;;;8.63;1.80;;;4.70;99.90;;;;;;5002657;28;20542;-79
2021/03/17 02:16:10;;;;;;;4.93;1.70;;;4.70;99.90;;;;;;5001329;28;20500;-80
2021/03/17 02:18:51;;;;;;;4.63;1.77;;;4.50;99.90;;;;;;5001817;28;20574;-80
2021/03/17 02:22:15;;;;;;;5.63;1.50;;;4.40;99.90;;;;;;5007289;28;20472;-80
2021/03/17 02:24:51;;;;;;;3.80;1.53;;;4.40;99.90;;;;;;4986413;28;20475;-79
2021/03/17 02:27:52;;;;;;;4.33;1.90;;;4.50;99.90;;;;;;5008904;28;21160;-81
2021/03/17 02:30:59;;;;;;;6.87;1.50;;;4.50;99.90;;;;;;5008259;28;21052;-79
2021/03/17 02:34:04;;;;;;;4.33;1.50;;;4.60;99.90;;;;;;5008543;28;20478;-79
2021/03/17 02:36:35;;;;;;;7.63;1.50;;;4.60;99.90;;;;;;5008141;28;20605;-79
2021/03/17 02:39:09;;;;;;;5.30;1.80;;;4.70;99.90;;;;;;5001543;28;20816;-79
2021/03/17 02:41:43;;;;;;;4.37;1.43;;;4.60;99.90;;;;;;4994206;28;20498;-80
2021/03/17 02:44:16;;;;;;;3.17;1.40;;;4.60;99.90;;;;;;5002805;28;20563;-80
2021/03/17 02:46:46;;;;;;;7.67;1.43;;;4.70;99.90;;;;;;5017289;28;20488;-79
2021/03/17 02:49:20;;;;;;;5.47;1.50;;;4.60;99.90;;;;;;4988273;28;20473;-79
2021/03/17 02:51:53;;;;;;;5.33;1.40;;;4.60;99.90;;;;;;4988880;28;20484;-79
2021/03/17 02:54:23;;;;;;;7.53;1.70;;;4.50;99.90;;;;;;5003282;28;20500;-80
2021/03/17 02:56:56;;;;;;;4.03;1.70;;;4.50;99.90;;;;;;5008413;28;20468;-79
2021/03/17 02:59:26;;;;;;;3.40;1.50;;;4.50;99.90;;;;;;5007068;28;20475;-80
2021/03/17 03:01:57;;;;;;;4.80;1.40;;;4.50;99.90;;;;;;5000663;28;20554;-80
2021/03/17 03:04:27;;;;;;;5.10;1.20;;;4.40;99.90;;;;;;5008568;28;20475;-79
2021/03/17 03:06:57;;;;;;;3.43;1.30;;;4.30;99.90;;;;;;5008234;28;20480;-79
2021/03/17 03:09:27;;;;;;;6.33;1.37;;;4.20;99.90;;;;;;5006962;28;20486;-79
2021/03/17 03:11:58;;;;;;;7.40;1.63;;;4.20;99.90;;;;;;4994655;28;20487;-80
2021/03/17 03:14:28;;;;;;;7.93;1.70;;;4.30;99.90;;;;;;5007007;28;20482;-79
2021/03/17 03:16:58;;;;;;;4.73;1.17;;;4.30;99.90;;;;;;5009856;28;20545;-79
2021/03/17 03:19:30;;;;;;;4.90;1.30;;;4.40;99.90;;;;;;4988109;28;20833;-80
2021/03/17 03:21:59;;;;;;;3.13;1.30;;;4.40;99.90;;;;;;4988416;28;20485;-79
2021/03/17 03:24:28;;;;;;;5.70;1.50;;;4.40;99.90;;;;;;4993172;28;20517;-79
2021/03/17 03:26:58;;;;;;;6.40;1.30;;;4.20;99.90;;;;;;5011956;28;20517;-79
2021/03/17 03:29:27;;;;;;;5.90;1.30;;;4.20;99.90;;;;;;5008567;28;20829;-80
2021/03/17 03:31:56;;;;;;;9.23;1.70;;;4.10;99.90;;;;;;5011737;28;20469;-79
2021/03/17 03:34:24;;;;;;;6.43;1.50;;;4.00;99.90;;;;;;5011896;28;21016;-80
2021/03/17 03:36:52;;;;;;;6.33;1.23;;;4.00;99.90;;;;;;5012022;28;20487;-80
2021/03/17 03:39:19;;;;;;;4.23;1.33;;;4.20;99.90;;;;;;5003162;28;20496;-80
2021/03/17 03:41:47;;;;;;;7.07;1.43;;;4.00;99.90;;;;;;5004417;28;21325;-79
2021/03/17 03:44:15;;;;;;;4.57;1.43;;;4.00;99.90;;;;;;5018344;28;20480;-80
2021/03/17 03:46:42;;;;;;;7.93;1.60;;;3.90;99.90;;;;;;5011956;28;20519;-79
2021/03/17 03:49:10;;;;;;;5.47;1.43;;;3.80;99.90;;;;;;5011181;28;20854;-79
2021/03/17 03:51:42;;;;;;;4.57;1.27;;;3.70;99.90;;;;;;5011249;28;20478;-79
2021/03/17 03:54:21;;;;;;;5.77;1.30;;;3.80;99.90;;;;;;5007865;28;20500;-79
2021/03/17 03:56:56;;;;;;;3.50;1.50;;;4.00;99.90;;;;;;4992261;28;20484;-79
2021/03/17 03:59:26;;;;;;;7.37;1.60;;;4.00;99.90;;;;;;4991436;28;20483;-79
2021/03/17 04:01:56;;;;;;;4.13;1.50;;;4.10;99.90;;;;;;4991508;28;20477;-80
2021/03/17 04:04:28;;;;;;;6.03;1.60;;;4.10;99.90;;;;;;4991974;28;20875;-80
2021/03/17 04:07:01;;;;;;;7.50;1.73;;;4.10;99.90;;;;;;4996674;28;20561;-80
2021/03/17 04:09:32;;;;;;;1.63;0.97;;;4.00;99.90;;;;;;5019072;28;20482;-79
2021/03/17 04:12:03;;;;;;;5.90;1.30;;;3.80;99.90;;;;;;5000372;28;20484;-78
2021/03/17 04:14:34;;;;;;;5.83;1.50;;;3.90;99.90;;;;;;4999325;28;20523;-79
2021/03/17 04:17:08;;;;;;;5.90;2.03;;;3.90;99.90;;;;;;4991636;28;20489;-78
2021/03/17 04:19:37;;;;;;;5.90;1.60;;;4.00;99.90;;;;;;4990788;28;20859;-79
2021/03/17 04:22:07;;;;;;;8.20;1.40;;;4.00;99.90;;;;;;4991355;28;20484;-79
2021/03/17 04:24:38;;;;;;;5.37;1.50;;;4.10;99.90;;;;;;4996498;28;20550;-78
2021/03/17 04:27:07;;;;;;;7.00;1.63;;;4.00;99.90;;;;;;5010489;28;20492;-78
2021/03/17 04:29:35;;;;;;;6.43;1.47;;;3.90;99.90;;;;;;5010204;28;20888;-78
2021/03/17 04:32:04;;;;;;;7.13;1.67;;;3.90;99.90;;;;;;5009515;28;20438;-81
2021/03/17 04:34:32;;;;;;;3.93;1.20;;;3.80;99.90;;;;;;5005014;28;20335;-80
2021/03/17 04:37:01;;;;;;;4.07;1.20;;;3.80;99.90;;;;;;5002340;28;20483;-80
2021/03/17 04:39:30;;;;;;;8.13;1.70;;;3.70;99.90;;;;;;4997229;28;21079;-80
2021/03/17 04:41:59;;;;;;;5.80;1.20;;;4.00;99.90;;;;;;5002222;28;20487;-80
2021/03/17 04:44:27;;;;;;;3.80;1.13;;;4.00;99.90;;;;;;5007034;28;20495;-80
2021/03/17 04:47:06;;;;;;;4.93;1.60;;;4.00;99.90;;;;;;4991078;28;20484;-81
2021/03/17 04:49:33;;;;;;;6.33;1.20;;;4.10;99.90;;;;;;4990149;28;20552;-80
2021/03/17 04:52:02;;;;;;;5.43;1.30;;;4.10;99.90;;;;;;4990481;28;20486;-80
2021/03/17 04:54:29;;;;;;;4.30;1.40;;;3.90;99.90;;;;;;4990911;28;20481;-80
2021/03/17 04:56:57;;;;;;;5.97;1.37;;;4.00;99.90;;;;;;4990984;28;20477;-80
2021/03/17 04:59:27;;;;;;;8.83;1.50;;;4.00;99.90;;;;;;4990430;28;20479;-80
2021/03/17 05:01:55;;;;;;;2.93;1.07;;;4.10;99.90;;;;;;4990464;28;20505;-80
2021/03/17 05:04:23;;;;;;;6.80;1.40;;;4.10;99.90;;;;;;4992925;28;20469;-80
2021/03/17 05:06:53;;;;;;;3.77;1.40;;;4.20;99.90;;;;;;5023363;28;20513;-80
2021/03/17 05:09:21;;;;;;;5.40;1.10;;;3.90;99.90;;;;;;5005319;28;20565;-80
2021/03/17 05:11:49;;;;;;;6.53;1.20;;;3.90;99.90;;;;;;5004303;28;20473;-80
2021/03/17 05:14:17;;;;;;;5.13;1.60;;;4.10;99.90;;;;;;4990866;28;20526;-80
2021/03/17 05:16:46;;;;;;;3.73;1.43;;;4.00;99.90;;;;;;5004918;28;20483;-79
2021/03/17 05:19:16;;;;;;;5.90;1.50;;;3.80;99.90;;;;;;4989940;28;20817;-80
2021/03/17 05:21:44;;;;;;;8.17;1.57;;;3.70;99.90;;;;;;4995154;28;20482;-80
2021/03/17 05:24:14;;;;;;;8.87;1.50;;;3.60;99.90;;;;;;5017052;28;21163;-80
2021/03/17 05:26:41;;;;;;;3.80;1.40;;;3.80;99.90;;;;;;4999139;28;20489;-80
2021/03/17 05:29:11;;;;;;;6.30;1.33;;;3.60;99.90;;;;;;5012735;28;20878;-80
2021/03/17 05:31:43;;;;;;;5.87;1.50;;;3.60;99.90;;;;;;5005093;28;20485;-80
2021/03/17 05:34:12;;;;;;;4.10;1.40;;;3.50;99.90;;;;;;5001567;28;20560;-80
2021/03/17 05:37:05;;;;;;;4.03;1.40;;;3.50;99.90;;;;;;4999078;28;21888;-80
2021/03/17 05:39:33;;;;;;;8.17;1.97;;;3.50;99.90;;;;;;4995175;28;20488;-80
2021/03/17 05:42:01;;;;;;;5.17;1.53;;;3.80;99.90;;;;;;4999717;28;20493;-80
2021/03/17 05:44:29;;;;;;;3.87;1.60;;;4.10;99.90;;;;;;5000976;28;20476;-80
2021/03/17 05:46:58;;;;;;;5.80;1.77;;;4.20;99.90;;;;;;4999354;28;21372;-80
2021/03/17 05:49:27;;;;;;;5.80;1.50;;;4.30;99.90;;;;;;5000280;28;20489;-80
2021/03/17 05:51:55;;;;;;;4.57;1.10;;;4.30;99.90;;;;;;5005784;28;20925;-80
2021/03/17 05:54:23;;;;;;;8.60;2.17;;;4.40;99.90;;;;;;4998447;28;20530;-80
2021/03/17 05:56:52;;;;;;;6.77;1.70;;;4.30;99.90;;;;;;4998508;28;20494;-80
2021/03/17 05:59:23;;;;;;;8.60;2.00;;;4.20;99.90;;;;;;4998266;28;20528;-80
2021/03/17 06:01:51;;;;;;;6.27;1.80;;;4.30;99.90;;;;;;5006674;28;20494;-79
2021/03/17 06:04:19;;;;;;;6.90;1.90;;;4.50;99.90;;;;;;5006942;28;20872;-80
2021/03/17 06:06:51;;;;;;;5.03;1.53;;;4.60;99.90;;;;;;4999910;28;20486;-80
2021/03/17 06:09:22;;;;;;;4.43;1.50;;;4.30;99.90;;;;;;5000274;28;20894;-80
2021/03/17 06:11:51;;;;;;;5.80;1.93;;;4.30;99.90;;;;;;5007189;28;20574;-80
2021/03/17 06:14:20;;;;;;;9.63;2.40;;;4.50;99.90;;;;;;5004678;28;20487;-79
2021/03/17 06:17:00;;;;;;;7.87;2.50;;;4.60;99.90;;;;;;4998180;28;20543;-80
2021/03/17 06:19:32;;;;;;;7.73;2.80;;;4.60;99.90;;;;;;5006096;28;20463;-80
2021/03/17 06:22:02;;;;;;;7.50;1.83;;;4.70;99.90;;;;;;5011689;28;20521;-79
2021/03/17 06:24:29;;;;;;;6.40;2.07;;;4.80;99.90;;;;;;5006264;28;20477;-80
2021/03/17 06:26:58;;;;;;;6.47;2.10;;;4.90;99.90;;;;;;4982395;28;20486;-79
2021/03/17 06:29:26;;;;;;;11.90;4.07;;;4.90;99.90;;;;;;5006212;28;20574;-80
2021/03/17 06:31:54;;;;;;;9.10;3.20;;;5.00;99.90;;;;;;5001975;28;21233;-80
2021/03/17 06:34:22;;;;;;;7.27;2.73;;;5.00;99.90;;;;;;5005686;28;20513;-79
2021/03/17 06:36:51;;;;;;;4.57;2.57;;;5.00;99.90;;;;;;4996232;28;20541;-80
2021/03/17 06:39:21;;;;;;;6.10;2.50;;;5.00;99.90;;;;;;5006068;28;20535;-80
2021/03/17 06:41:52;;;;;;;6.60;2.13;;;5.10;99.90;;;;;;4991082;28;20478;-80
2021/03/17 06:44:22;;;;;;;9.00;2.57;;;5.00;99.90;;;;;;4998272;28;20476;-80
2021/03/17 06:47:18;;;;;;;5.30;2.10;;;5.10;99.90;;;;;;5008899;28;20483;-79
2021/03/17 06:49:49;;;;;;;8.37;2.83;;;5.00;99.90;;;;;;4995159;28;20523;-79
2021/03/17 06:52:41;;;;;;;9.23;2.80;;;5.10;99.90;;;;;;4999362;28;20483;-81
2021/03/17 06:55:18;;;;;;;5.70;2.17;;;5.30;99.90;;;;;;4993837;28;20525;-80
2021/03/17 06:57:48;;;;;;;4.73;2.20;;;5.30;99.90;;;;;;4999205;28;21063;-81
2021/03/17 07:00:28;;;;;;;5.20;2.07;;;5.40;99.90;;;;;;5004944;28;20473;-81
2021/03/17 07:03:02;;;;;;;6.93;2.10;;;5.10;99.90;;;;;;4998127;28;20483;-80
2021/03/17 07:05:37;;;;;;;4.30;1.80;;;4.90;99.90;;;;;;5001278;28;20898;-80
2021/03/17 07:08:06;;;;;;;4.83;1.63;;;4.70;99.90;;;;;;4995914;28;20494;-81
2021/03/17 07:10:58;;;;;;;5.27;1.60;;;4.70;99.90;;;;;;5002430;28;20540;-81
2021/03/17 07:13:27;;;;;;;5.10;1.50;;;4.90;99.90;;;;;;4998317;28;20543;-81
2021/03/17 07:15:56;;;;;;;4.67;1.33;;;5.00;99.90;;;;;;5002983;28;20546;-80
2021/03/17 07:18:26;;;;;;;6.03;1.90;;;4.90;99.90;;;;;;5021164;28;20487;-81
2021/03/17 07:20:56;;;;;;;5.77;1.67;;;4.90;99.90;;;;;;5000972;28;20489;-81
2021/03/17 07:23:39;;;;;;;6.33;1.70;;;4.80;99.90;;;;;;5003201;28;20491;-80
2021/03/17 07:26:18;;;;;;;9.60;1.77;;;4.90;99.90;;;;;;5004105;28;20490;-81
2021/03/17 07:29:03;;;;;;;5.23;1.67;;;4.90;99.90;;;;;;5004200;28;20474;-81
2021/03/17 07:31:33;;;;;;;7.70;1.93;;;5.00;99.90;;;;;;5015285;28;20489;-81
2021/03/17 07:34:22;;;;;;;6.43;1.97;;;5.10;99.90;;;;;;4998603;28;20991;-80
2021/03/17 07:36:54;;;;;;;5.90;1.60;;;5.20;99.90;;;;;;5001435;28;20244;-80
2021/03/17 07:39:25;;;;;;;5.43;1.97;;;5.50;99.90;;;;;;5006166;28;20966;-80
2021/03/17 07:41:57;;;;;;;5.30;1.60;;;5.70;99.90;;;;;;4997531;28;20538;-80
2021/03/17 07:44:26;;;;;;;8.33;1.70;;;5.80;99.90;;;;;;4997234;28;20458;-80
2021/03/17 07:46:57;;;;;;;5.77;1.67;;;5.80;99.90;;;;;;5006242;28;20487;-81
2021/03/17 07:49:42;;;;;;;4.57;1.73;;;6.00;99.90;;;;;;4988017;28;20543;-80
2021/03/17 07:52:18;;;;;;;5.30;1.63;;;6.10;99.90;;;;;;5001603;28;20549;-80
2021/03/17 07:54:52;;;;;;;6.87;1.90;;;6.00;99.90;;;;;;4998555;28;20248;-80
2021/03/17 07:57:23;;;;;;;6.60;1.63;;;6.00;99.90;;;;;;5004775;28;20837;-80
2021/03/17 07:59:55;;;;;;;7.33;1.47;;;5.90;99.90;;;;;;5003818;28;20478;-80
2021/03/17 08:02:23;;;;;;;4.67;1.70;;;6.00;99.90;;;;;;4997651;28;20473;-80
2021/03/17 08:04:53;;;;;;;4.87;1.67;;;5.90;99.90;;;;;;5004709;28;20241;-80
2021/03/17 08:07:20;;;;;;;4.23;1.50;;;6.00;99.90;;;;;;5005932;28;21023;-80
2021/03/17 08:09:50;;;;;;;7.33;2.03;;;6.00;99.90;;;;;;5003991;28;20681;-81
2021/03/17 08:12:19;;;;;;;7.50;2.37;;;6.00;99.90;;;;;;5009059;28;20257;-80
2021/03/17 08:14:48;;;;;;;5.07;2.50;;;5.90;99.90;;;;;;5022582;28;20241;-80
2021/03/17 08:17:31;;;;;;;7.03;2.53;;;5.80;99.90;;;;;;4998922;28;20476;-80
2021/03/17 08:20:24;;;;;;;6.80;2.60;;;5.70;99.90;;;;;;4999517;28;20244;-80
2021/03/17 08:22:52;;;;;;;5.20;2.53;;;5.60;99.90;;;;;;5004020;28;20273;-80
2021/03/17 08:25:43;;;;;;;7.40;2.80;;;5.60;99.90;;;;;;5006751;28;20534;-80
2021/03/17 08:28:18;;;;;;;6.00;3.47;;;5.70;99.90;;;;;;5006805;28;20499;-80
2021/03/17 08:30:48;;;;;;;11.07;3.40;;;5.60;99.90;;;;;;5019086;28;20786;-80
2021/03/17 08:33:34;;;;;;;5.10;2.83;;;5.60;99.90;;;;;;5003672;28;20484;-80
2021/03/17 08:36:11;;;;;;;7.53;2.87;;;5.70;99.90;;;;;;4998580;28;21763;-80
2021/03/17 08:38:55;;;;;;;7.60;2.80;;;5.70;99.90;;;;;;5000611;28;20507;-80
2021/03/17 08:41:53;;;;;;;6.80;2.70;;;5.80;99.90;;;;;;4990643;28;20321;-80
2021/03/17 08:44:25;;;;;;;8.80;2.67;;;5.80;99.90;;;;;;4994530;28;20826;-80
2021/03/17 08:46:55;;;;;;;7.07;2.77;;;5.70;99.90;;;;;;5001347;28;20866;-80
2021/03/17 08:49:32;;;;;;;8.43;3.07;;;5.80;99.90;;;;;;4999112;28;20236;-80
2021/03/17 08:52:07;;;;;;;7.03;3.30;;;5.80;99.90;;;;;;5006964;28;20481;-80
2021/03/17 08:55:13;;;;;;;7.83;3.57;;;5.70;99.90;;;;;;5005615;28;21037;-80
2021/03/17 08:58:08;;;;;;;6.70;3.57;;;5.70;99.90;;;;;;4999054;28;20236;-80
2021/03/17 09:00:58;;;;;;;6.50;3.07;;;5.80;99.90;;;;;;4971590;28;20233;-80
2021/03/17 09:03:47;;;;;;;6.50;3.13;;;5.70;99.90;;;;;;5001962;28;20491;-80
2021/03/17 09:06:23;;;;;;;5.27;2.80;;;5.70;99.90;;;;;;5002458;28;21020;-80
2021/03/17 09:09:01;;;;;;;8.13;2.67;;;5.80;99.90;;;;;;4999251;28;20472;-80
2021/03/17 09:11:58;;;;;;;5.33;2.50;;;5.80;99.90;;;;;;5008005;28;20240;-80
2021/03/17 09:14:35;;;;;;;6.23;2.30;;;5.90;99.90;;;;;;5011010;28;20464;-80
2021/03/17 09:17:20;;;;;;;7.07;2.20;;;5.90;99.90;;;;;;5006012;28;20235;-80
2021/03/17 09:20:25;;;;;;;3.97;2.20;;;5.90;99.90;;;;;;5008054;28;20503;-79
2021/03/17 09:23:08;;;;;;;5.00;2.23;;;5.90;99.90;;;;;;5001864;28;20472;-80
2021/03/17 09:25:41;;;;;;;4.17;2.20;;;5.90;99.90;;;;;;4997131;28;20237;-80
2021/03/17 09:28:12;;;;;;;4.40;2.60;;;6.00;99.90;;;;;;5004415;28;20240;-80
2021/03/17 09:30:45;;;;;;;6.23;2.40;;;6.00;99.90;;;;;;5001899;28;20244;-80
2021/03/17 09:33:18;;;;;;;7.37;2.60;;;6.00;99.90;;;;;;5008647;28;20727;-80
2021/03/17 09:35:53;;;;;;;7.87;2.60;;;6.00;99.90;;;;;;5006707;28;20484;-80
2021/03/17 09:38:24;;;;;;;5.10;2.70;;;6.00;99.90;;;;;;4993566;28;20487;-80
2021/03/17 09:41:00;;;;;;;7.43;2.80;;;6.10;99.90;;;;;;5017392;28;20482;-80
2021/03/17 09:43:38;;;;;;;6.43;2.50;;;6.20;99.90;;;;;;4988866;28;20485;-80
2021/03/17 09:46:24;;;;;;;4.83;2.80;;;6.10;99.90;;;;;;4999643;28;20484;-80
2021/03/17 09:48:55;;;;;;;6.83;2.77;;;6.10;99.90;;;;;;4999442;28;20723;-80
2021/03/17 09:51:27;;;;;;;4.00;2.70;;;6.10;99.90;;;;;;5018112;28;20543;-80
2021/03/17 09:53:57;;;;;;;6.07;3.37;;;6.20;99.90;;;;;;5005352;28;20236;-80
2021/03/17 09:56:41;;;;;;;8.67;2.90;;;6.20;99.90;;;;;;5001220;28;20468;-80
2021/03/17 09:59:28;;;;;;;6.73;2.70;;;6.30;99.90;;;;;;5002542;28;20233;-80
2021/03/17 10:01:59;;;;;;;6.17;2.83;;;6.30;99.90;;;;;;5007723;28;20287;-80
2021/03/17 10:04:33;;;;;;;4.03;2.60;;;6.40;99.90;;;;;;5023868;28;20568;-80
2021/03/17 10:07:04;;;;;;;6.00;2.83;;;6.50;99.90;;;;;;5008422;28;20252;-80
2021/03/17 10:09:35;;;;;;;3.67;2.67;;;6.60;99.90;;;;;;5008271;28;20731;-81
2021/03/17 10:12:07;;;;;;;3.93;2.17;;;6.60;99.90;;;;;;5005525;28;20241;-81
2021/03/17 10:14:37;;;;;;;8.70;2.87;;;6.70;99.90;;;;;;4999723;28;20300;-81
2021/03/17 10:17:08;;;;;;;7.20;3.20;;;6.90;99.90;;;;;;4989590;28;20234;-81
2021/03/17 10:19:38;;;;;;;4.60;2.73;;;7.40;99.90;;;;;;4988688;28;20304;-80
2021/03/17 10:22:06;;;;;;;5.87;2.87;;;7.90;99.90;;;;;;5000575;28;20323;-81
2021/03/17 10:24:38;;;;;;;7.40;2.97;;;7.80;99.90;;;;;;4998009;28;20885;-81
2021/03/17 10:27:10;;;;;;;6.40;3.23;;;7.50;99.90;;;;;;4997111;28;20229;-81
2021/03/17 10:29:38;;;;;;;5.80;2.87;;;7.10;99.90;;;;;;5023030;28;20272;-82
2021/03/17 10:32:08;;;;;;;5.47;2.70;;;6.80;99.90;;;;;;5008496;28;20244;-81
2021/03/17 10:34:37;;;;;;;6.63;3.07;;;6.60;99.90;;;;;;4996801;28;20766;-81
2021/03/17 10:37:11;;;;;;;6.07;3.67;;;6.40;99.90;;;;;;4988889;28;20308;-81
2021/03/17 10:39:39;;;;;;;12.97;4.00;;;6.30;99.90;;;;;;4988239;28;20244;-81
2021/03/17 10:42:19;;;;;;;5.77;3.13;;;6.20;99.90;;;;;;4987547;28;20240;-81
2021/03/17 10:45:02;;;;;;;5.53;3.30;;;6.10;99.90;;;;;;4994979;28;20263;-81
2021/03/17 10:47:30;;;;;;;7.73;4.13;;;6.20;99.90;;;;;;5007784;28;20263;-81
2021/03/17 10:49:59;;;;;;;5.10;3.50;;;6.20;99.90;;;;;;5021761;28;20476;-81
2021/03/17 10:52:38;;;;;;;10.43;3.73;;;6.20;99.90;;;;;;4997548;28;20247;-81
2021/03/17 10:55:19;;;;;;;6.60;3.50;;;6.10;99.90;;;;;;5003137;28;20538;-81
2021/03/17 10:57:48;;;;;;;6.13;3.30;;;6.00;99.90;;;;;;4999871;28;20237;-81
2021/03/17 11:00:27;;;;;;;7.10;3.43;;;6.10;99.90;;;;;;5007660;28;20480;-81
2021/03/17 11:02:55;;;;;;;8.20;3.60;;;6.20;99.90;;;;;;5022264;28;20245;-81
2021/03/17 11:05:30;;;;;;;7.07;3.40;;;6.40;99.90;;;;;;5002973;28;20233;-81
2021/03/17 11:08:11;;;;;;;6.53;3.60;;;6.80;99.90;;;;;;4997651;28;20697;-81
2021/03/17 11:11:04;;;;;;;7.10;3.30;;;7.20;99.90;;;;;;5013338;28;20259;-81
2021/03/17 11:13:40;;;;;;;6.10;4.23;;;7.80;99.90;;;;;;4988058;28;20968;-81
2021/03/17 11:16:14;;;;;;;7.60;3.80;;;8.20;99.90;;;;;;4991987;28;20233;-80
2021/03/17 11:18:49;;;;;;;5.83;3.60;;;8.50;99.90;;;;;;4990610;28;20644;-81
2021/03/17 11:21:24;;;;;;;5.83;3.60;;;8.30;99.90;;;;;;5003100;28;20244;-80
2021/03/17 11:23:54;;;;;;;9.43;3.60;;;8.20;99.90;;;;;;4987375;28;20249;-81
2021/03/17 11:26:28;;;;;;;5.53;3.33;;;8.00;99.90;;;;;;5008176;28;20248;-81
2021/03/17 11:28:58;;;;;;;8.33;4.20;;;7.90;99.90;;;;;;4989792;28;20557;-81
2021/03/17 11:31:32;;;;;;;4.77;3.73;;;7.70;99.90;;;;;;4994774;28;21049;-81
2021/03/17 11:34:01;;;;;;;5.37;4.00;;;8.00;99.90;;;;;;4989377;28;20233;-81
2021/03/17 11:36:31;;;;;;;10.03;4.17;;;8.10;99.90;;;;;;4988142;28;20768;-81
2021/03/17 11:39:00;;;;;;;6.03;3.43;;;8.70;99.90;;;;;;4988443;28;20787;-81
2021/03/17 11:41:28;;;;;;;6.40;3.40;;;8.90;99.90;;;;;;4988214;28;20249;-81
2021/03/17 11:43:56;;;;;;;6.53;3.00;;;9.00;99.90;;;;;;4982360;28;20238;-81
2021/03/17 11:46:24;;;;;;;4.90;3.20;;;8.80;99.90;;;;;;4991564;28;20232;-80
2021/03/17 11:48:53;;;;;;;6.53;3.60;;;8.90;99.90;;;;;;4988056;28;20246;-81
2021/03/17 11:51:22;;;;;;;5.17;3.40;;;9.30;99.90;;;;;;4990433;28;20253;-81
2021/03/17 11:53:51;;;;;;;6.10;3.40;;;9.60;99.90;;;;;;4989909;28;20242;-81
2021/03/17 11:56:20;;;;;;;8.90;3.47;;;9.60;99.90;;;;;;4993122;28;20256;-80
2021/03/17 11:58:48;;;;;;;6.53;3.07;;;9.50;99.90;;;;;;4992016;28;20766;-79
2021/03/17 12:01:16;;;;;;;5.37;3.00;;;9.70;99.90;;;;;;4989208;28;20248;-79
2021/03/17 12:03:49;;;;;;;6.83;3.20;;;9.80;99.90;;;;;;5004359;28;20241;-78
2021/03/17 12:06:17;;;;;;;7.53;3.63;;;9.60;99.90;;;;;;4999772;28;20320;-78
2021/03/17 12:08:45;;;;;;;6.57;3.87;;;9.30;99.90;;;;;;5002408;28;20247;-78
2021/03/17 12:11:21;;;;;;;6.17;3.63;;;9.10;99.90;;;;;;5001825;28;20308;-78
2021/03/17 12:13:51;;;;;;;6.97;3.90;;;9.00;99.90;;;;;;5018405;28;20240;-79
2021/03/17 12:16:20;;;;;;;10.57;4.30;;;8.90;99.90;;;;;;5008658;28;20584;-79
2021/03/17 12:18:49;;;;;;;6.27;3.87;;;8.60;99.90;;;;;;5004275;28;20240;-78
2021/03/17 12:21:17;;;;;;;7.50;3.63;;;8.60;99.90;;;;;;5005072;28;20739;-78
2021/03/17 12:23:45;;;;;;;7.13;4.07;;;8.60;99.90;;;;;;5007109;28;20328;-77
2021/03/17 12:26:14;;;;;;;6.47;3.90;;;8.60;99.90;;;;;;5012127;28;20279;-78
2021/03/17 12:28:43;;;;;;;7.60;4.10;;;8.60;99.90;;;;;;5027961;28;20241;-77
2021/03/17 12:31:15;;;;;;;6.70;4.20;;;8.70;99.90;;;;;;5010297;28;20236;-77
2021/03/17 12:33:43;;;;;;;6.63;4.03;;;8.60;99.90;;;;;;5003174;28;20240;-77
2021/03/17 12:36:11;;;;;;;6.80;4.13;;;8.50;99.90;;;;;;5002907;28;20237;-78
2021/03/17 12:38:39;;;;;;;7.43;4.50;;;8.40;99.90;;;;;;5001976;28;20285;-78
2021/03/17 12:41:07;;;;;;;5.97;4.33;;;8.40;99.90;;;;;;5005400;28;20256;-78
2021/03/17 12:43:34;;;;;;;8.43;4.80;;;8.30;99.90;;;;;;5001204;28;20229;-77
2021/03/17 12:46:03;;;;;;;10.43;4.43;;;8.20;99.90;;;;;;5020660;28;20308;-79
2021/03/17 12:48:32;;;;;;;11.40;4.87;;;8.10;99.90;;;;;;5003251;28;20724;-78
2021/03/17 12:51:00;;;;;;;8.13;4.53;;;8.00;99.90;;;;;;5005187;28;20242;-78
2021/03/17 12:53:36;;;;;;;8.40;4.13;;;7.90;99.90;;;;;;5019407;28;20295;-78
2021/03/17 12:56:05;;;;;;;7.83;4.50;;;7.90;99.90;;;;;;5002346;28;20284;-78
2021/03/17 12:58:33;;;;;;;8.37;4.30;;;7.90;99.90;;;;;;5002864;28;20269;-79
2021/03/17 13:01:02;;;;;;;7.93;4.97;;;8.00;99.90;;;;;;5000737;28;20244;-79
2021/03/17 13:03:31;;;;;;;9.40;5.00;;;8.10;99.90;;;;;;5007348;28;20292;-77
2021/03/17 13:06:00;;;;;;;9.13;4.80;;;8.20;99.90;;;;;;5001924;28;20531;-77
2021/03/17 13:08:27;;;;;;;6.90;4.40;;;8.30;99.90;;;;;;5009625;28;20260;-77
2021/03/17 13:10:56;;;;;;;8.40;4.17;;;8.40;99.90;;;;;;5005292;28;20241;-79
2021/03/17 13:13:23;;;;;;;6.63;3.60;;;8.50;99.90;;;;;;5007574;28;20864;-77
2021/03/17 13:15:50;;;;;;;7.60;4.37;;;8.50;99.90;;;;;;5004028;28;20237;-77
2021/03/17 13:18:19;;;;;;;5.83;3.60;;;8.60;99.90;;;;;;5006898;28;20307;-78
2021/03/17 13:20:46;;;;;;;5.33;3.20;;;8.70;99.90;;;;;;5008356;28;20747;-78
2021/03/17 13:23:14;;;;;;;5.57;3.90;;;8.90;99.90;;;;;;5008751;28;20245;-78
2021/03/17 13:25:43;;;;;;;8.50;5.13;;;9.00;99.90;;;;;;5006997;28;20295;-78
2021/03/17 13:28:11;;;;;;;5.50;4.60;;;9.20;99.90;;;;;;5001798;28;20307;-77
2021/03/17 13:30:40;;;;;;;5.40;3.80;;;9.30;99.90;;;;;;5018108;28;20233;-78
2021/03/17 13:33:07;;;;;;;5.47;3.70;;;9.20;99.90;;;;;;5010398;28;20244;-77